createdAt,value
2019-05-10T00:00:25.572Z,14.05
2019-05-10T00:03:14.704Z,8.28
2019-05-10T00:06:03.545Z,10.78
2019-05-10T00:08:45.636Z,6.75
2019-05-10T00:11:39.791Z,4.40
2019-05-10T00:14:14.021Z,12.55
2019-05-10T00:16:45.037Z,6.03
2019-05-10T00:19:19.862Z,4.30
2019-05-10T00:21:50.497Z,4.33
2019-05-10T00:24:21.340Z,6.22
2019-05-10T00:26:52.161Z,6.53
2019-05-10T00:29:24.304Z,6.42
2019-05-10T00:31:54.916Z,5.87
2019-05-10T00:34:25.660Z,5.10
2019-05-10T00:36:55.613Z,9.13
2019-05-10T00:39:28.272Z,6.20
2019-05-10T00:41:59.758Z,7.03
2019-05-10T00:44:30.518Z,7.85
2019-05-10T00:47:01.265Z,5.47
2019-05-10T00:49:34.112Z,6.60
2019-05-10T00:52:05.130Z,8.88
2019-05-10T00:54:35.822Z,4.92
2019-05-10T00:57:06.616Z,4.55
2019-05-10T00:59:40.426Z,7.97
2019-05-10T01:02:10.527Z,4.20
2019-05-10T01:04:41.320Z,8.63
2019-05-10T01:07:12.041Z,7.03
2019-05-10T01:09:45.425Z,7.80
2019-05-10T01:12:16.063Z,7.58
2019-05-10T01:14:46.793Z,7.50
2019-05-10T01:17:17.646Z,9.90
2019-05-10T01:19:51.396Z,7.12
2019-05-10T01:22:22.016Z,9.95
2019-05-10T01:24:52.683Z,8.75
2019-05-10T01:27:23.335Z,8.43
2019-05-10T01:29:55.067Z,12.45
2019-05-10T01:32:25.799Z,9.63
2019-05-10T01:34:56.588Z,9.25
2019-05-10T01:37:27.137Z,10.20
2019-05-10T01:40:00.472Z,11.15
2019-05-10T01:42:32.096Z,11.00
2019-05-10T01:45:02.844Z,14.18
2019-05-10T01:47:33.597Z,8.70
2019-05-10T01:50:07.068Z,11.38
2019-05-10T01:52:37.720Z,11.63
2019-05-10T01:55:09.241Z,7.47
2019-05-10T01:57:39.787Z,9.00
2019-05-10T02:00:11.665Z,7.70
2019-05-10T02:02:42.522Z,10.58
2019-05-10T02:05:14.127Z,10.25
2019-05-10T02:07:44.388Z,8.20
2019-05-10T02:10:16.458Z,7.97
2019-05-10T02:12:46.977Z,8.13
2019-05-10T02:15:17.322Z,8.43
2019-05-10T02:17:47.972Z,9.08
2019-05-10T02:20:25.199Z,9.55
2019-05-10T02:22:55.796Z,12.93
2019-05-10T02:25:27.084Z,9.28
2019-05-10T02:27:57.154Z,11.08
2019-05-10T02:30:29.996Z,10.63
2019-05-10T02:33:00.630Z,16.85
2019-05-10T02:35:50.113Z,10.80
2019-05-10T02:38:20.880Z,10.60
2019-05-10T02:40:51.615Z,7.22
2019-05-10T02:43:22.541Z,11.28
2019-05-10T02:45:53.269Z,9.48
2019-05-10T02:48:23.877Z,20.62
2019-05-10T02:50:54.548Z,14.43
2019-05-10T02:53:24.964Z,15.98
2019-05-10T02:55:55.255Z,14.63
2019-05-10T02:58:26.523Z,20.08
2019-05-10T03:01:00.284Z,20.92
2019-05-10T03:03:32.652Z,20.97
2019-05-10T03:06:05.966Z,19.73
2019-05-10T03:08:50.721Z,21.85
2019-05-10T03:11:21.559Z,20.05
2019-05-10T03:13:52.840Z,21.05
2019-05-10T03:16:23.882Z,22.22
2019-05-10T03:18:56.752Z,27.45
2019-05-10T03:21:30.718Z,32.48
2019-05-10T03:24:01.448Z,35.73
2019-05-10T03:26:49.585Z,35.73
2019-05-10T03:29:08.011Z,71.55
2019-05-10T03:31:38.649Z,57.78
2019-05-10T03:34:09.181Z,46.68
2019-05-10T03:36:40.688Z,44.25
2019-05-10T03:39:12.593Z,52.88
2019-05-10T03:41:43.646Z,56.45
2019-05-10T03:44:13.853Z,50.65
2019-05-10T03:46:44.524Z,55.05
2019-05-10T03:49:15.819Z,75.57
2019-05-10T03:51:46.572Z,60.52
2019-05-10T03:54:17.314Z,75.72
2019-05-10T03:56:49.085Z,68.25
2019-05-10T03:59:23.017Z,130.45
2019-05-10T04:01:53.083Z,214.85
2019-05-10T04:04:23.384Z,117.25
2019-05-10T04:06:54.291Z,136.43
2019-05-10T04:09:31.921Z,147.82
2019-05-10T04:12:02.062Z,179.83
2019-05-10T04:14:32.033Z,115.20
2019-05-10T04:17:02.795Z,104.58
2019-05-10T04:19:33.829Z,95.22
2019-05-10T04:22:03.987Z,134.93
2019-05-10T04:24:36.583Z,94.87
2019-05-10T04:27:06.480Z,110.00
2019-05-10T04:29:38.306Z,108.20
2019-05-10T04:32:09.006Z,173.62
2019-05-10T04:34:39.621Z,81.87
2019-05-10T04:37:09.889Z,130.97
2019-05-10T04:39:42.200Z,124.20
2019-05-10T04:42:12.389Z,98.23
2019-05-10T04:44:43.407Z,102.07
2019-05-10T04:47:14.149Z,78.75
2019-05-10T04:49:45.311Z,110.17
2019-05-10T04:52:16.154Z,105.05
2019-05-10T04:54:46.130Z,98.70
2019-05-10T04:57:16.405Z,80.12
2019-05-10T04:59:49.134Z,79.85
2019-05-10T05:02:22.239Z,71.57
2019-05-10T05:04:52.086Z,76.80
2019-05-10T05:07:22.282Z,77.57
2019-05-10T05:09:52.392Z,62.45
2019-05-10T05:12:23.020Z,67.92
2019-05-10T05:14:53.578Z,76.72
2019-05-10T05:17:43.511Z,81.50
2019-05-10T05:20:19.865Z,77.10
2019-05-10T05:22:50.056Z,81.28
2019-05-10T05:25:29.440Z,80.90
2019-05-10T05:28:18.513Z,85.00
2019-05-10T05:30:52.556Z,72.42
2019-05-10T05:33:23.202Z,79.87
2019-05-10T05:35:53.864Z,75.90
2019-05-10T05:38:23.979Z,83.42
2019-05-10T05:40:53.928Z,78.78
2019-05-10T05:43:24.604Z,73.78
2019-05-10T05:45:54.861Z,72.03
2019-05-10T05:48:39.524Z,71.60
2019-05-10T05:50:57.214Z,73.10
2019-05-10T05:53:27.374Z,71.72
2019-05-10T05:56:03.661Z,77.95
2019-05-10T05:58:30.788Z,69.17
2019-05-10T06:01:01.357Z,68.22
2019-05-10T06:03:31.521Z,68.22
2019-05-10T06:06:02.196Z,61.02
2019-05-10T06:08:34.099Z,63.48
2019-05-10T06:11:09.065Z,58.58
2019-05-10T06:13:39.468Z,61.13
2019-05-10T06:16:12.776Z,62.20
2019-05-10T06:18:47.127Z,67.10
2019-05-10T06:21:17.976Z,61.33
2019-05-10T06:23:45.303Z,74.47
2019-05-10T06:26:26.412Z,64.27
2019-05-10T06:29:03.710Z,58.23
2019-05-10T06:31:24.321Z,56.15
2019-05-10T06:33:54.971Z,67.17
2019-05-10T06:36:25.722Z,65.00
2019-05-10T06:39:06.785Z,62.13
2019-05-10T06:41:37.632Z,68.47
2019-05-10T06:44:08.381Z,51.15
2019-05-10T06:46:40.007Z,56.08
2019-05-10T06:49:11.782Z,64.37
2019-05-10T06:51:54.544Z,63.17
2019-05-10T06:54:25.210Z,57.17
2019-05-10T06:56:55.851Z,54.08
2019-05-10T06:59:26.653Z,42.20
2019-05-10T07:01:58.298Z,41.05
2019-05-10T07:04:28.981Z,47.08
2019-05-10T07:06:59.589Z,39.60
2019-05-10T07:10:00.515Z,40.52
2019-05-10T07:12:09.380Z,37.42
2019-05-10T07:14:43.036Z,42.50
2019-05-10T07:17:09.242Z,39.13
2019-05-10T07:19:42.026Z,41.20
2019-05-10T07:22:13.283Z,39.42
2019-05-10T07:24:45.592Z,37.75
2019-05-10T07:27:17.899Z,38.15
2019-05-10T07:29:48.691Z,33.85
2019-05-10T07:32:22.089Z,34.13
2019-05-10T07:34:58.975Z,34.58
2019-05-10T07:37:23.812Z,36.85
2019-05-10T07:39:56.034Z,29.07
2019-05-10T07:42:28.131Z,30.88
2019-05-10T07:44:59.908Z,23.90
2019-05-10T07:59:51.101Z,23.22
2019-05-10T08:04:58.472Z,19.75
2019-05-10T08:07:49.323Z,22.00
2019-05-10T08:10:36.665Z,18.67
2019-05-10T08:13:08.496Z,20.97
2019-05-10T08:15:39.345Z,17.17
2019-05-10T08:18:15.260Z,20.17
2019-05-10T08:20:52.147Z,18.52
2019-05-10T08:23:18.072Z,19.57
2019-05-10T08:26:10.929Z,16.97
2019-05-10T08:28:42.204Z,17.37
2019-05-10T08:31:12.467Z,19.40
2019-05-10T08:33:52.801Z,17.07
2019-05-10T08:36:17.586Z,18.62
2019-05-10T08:39:00.572Z,18.52
2019-05-10T08:41:22.318Z,18.07
2019-05-10T08:43:53.337Z,20.30
2019-05-10T08:46:37.226Z,19.27
2019-05-10T08:49:02.117Z,17.60
2019-05-10T08:51:54.173Z,20.12
2019-05-10T08:54:26.404Z,19.73
2019-05-10T08:57:05.334Z,17.98
2019-05-10T08:59:35.518Z,18.80
2019-05-10T09:02:06.175Z,17.57
2019-05-10T09:04:43.681Z,16.82
2019-05-10T09:07:11.723Z,19.00
2019-05-10T09:09:49.915Z,20.02
2019-05-10T09:12:18.173Z,23.80
2019-05-10T09:14:49.015Z,23.00
2019-05-10T09:17:23.457Z,22.37
2019-05-10T09:19:52.181Z,23.95
2019-05-10T09:22:24.013Z,23.55
2019-05-10T09:24:55.101Z,19.92
2019-05-10T09:27:29.083Z,19.60
2019-05-10T09:30:08.156Z,20.48
2019-05-10T09:32:39.930Z,21.85
2019-05-10T09:35:12.543Z,26.10
2019-05-10T09:37:47.686Z,22.02
2019-05-10T09:40:17.715Z,22.90
2019-05-10T09:42:49.012Z,23.40
2019-05-10T09:45:22.190Z,22.32
2019-05-10T09:47:53.795Z,19.12
2019-05-10T09:50:30.594Z,16.00
2019-05-10T09:52:58.622Z,22.80
2019-05-10T09:55:29.598Z,18.25
2019-05-10T09:58:00.311Z,21.85
2019-05-10T10:00:33.356Z,23.98
2019-05-10T10:03:08.195Z,22.52
2019-05-10T10:05:40.282Z,22.82
2019-05-10T10:08:12.817Z,21.90
2019-05-10T10:10:43.679Z,21.40
2019-05-10T10:13:25.572Z,21.82
2019-05-10T10:15:51.854Z,16.50
2019-05-10T10:18:25.050Z,19.27
2019-05-10T10:20:52.919Z,19.23
2019-05-10T10:23:24.741Z,19.45
2019-05-10T10:25:57.978Z,18.85
2019-05-10T10:28:28.713Z,17.32
2019-05-10T10:31:05.266Z,22.22
2019-05-10T10:33:32.221Z,17.15
2019-05-10T10:36:05.494Z,19.15
2019-05-10T10:38:37.053Z,23.27
2019-05-10T10:41:09.036Z,17.95
2019-05-10T10:43:39.761Z,19.80
2019-05-10T11:32:31.583Z,18.70
2019-05-10T11:35:05.440Z,23.95
2019-05-10T11:37:36.941Z,17.02
2019-05-10T11:40:08.098Z,14.00
2019-05-10T11:42:43.803Z,18.60
2019-05-10T11:45:13.993Z,14.53
2019-05-10T11:47:48.109Z,14.47
2019-05-10T11:50:28.809Z,13.20
2019-05-10T11:52:51.481Z,17.80
2019-05-10T11:55:23.754Z,12.93
2019-05-10T11:58:01.933Z,12.78
2019-05-10T12:00:37.375Z,12.43
2019-05-10T12:03:14.877Z,12.65
2019-05-10T12:08:13.389Z,13.03
2019-05-10T12:10:52.648Z,11.60
2019-05-10T12:15:51.766Z,14.80
2019-05-10T12:18:26.668Z,13.30
2019-05-10T12:23:45.813Z,12.35
2019-05-10T12:25:59.930Z,11.78
2019-05-10T12:26:08.471Z,9.40
2019-05-10T12:26:49.987Z,13.05
2019-05-10T12:28:40.921Z,10.55
2019-05-10T12:31:17.026Z,11.30
2019-05-10T12:33:50.610Z,12.63
2019-05-10T12:36:26.008Z,12.88
2019-05-10T12:38:56.167Z,11.40
2019-05-10T12:41:27.138Z,8.63
2019-05-10T12:44:04.048Z,13.00
2019-05-10T12:46:30.685Z,9.20
2019-05-10T12:49:02.106Z,13.38
2019-05-10T12:51:33.889Z,9.05
2019-05-10T12:54:04.542Z,13.40
2019-05-10T12:56:43.933Z,11.83
2019-05-10T12:59:13.484Z,7.92
2019-05-10T13:01:45.469Z,9.60
2019-05-10T13:04:16.973Z,9.03
2019-05-10T13:06:47.885Z,9.75
2019-05-10T13:09:18.585Z,10.75
2019-05-10T13:11:49.222Z,7.65
2019-05-10T13:14:19.995Z,8.70
2019-05-10T13:16:50.657Z,10.98
2019-05-10T13:19:21.704Z,7.90
2019-05-10T13:21:53.681Z,13.22
2019-05-10T13:24:24.751Z,6.35
2019-05-10T13:26:55.387Z,11.65
2019-05-10T13:29:26.166Z,8.53
2019-05-10T13:31:56.924Z,6.60
2019-05-10T13:34:31.654Z,9.08
2019-05-10T13:37:26.965Z,10.20
2019-05-10T13:40:27.064Z,8.68
2019-05-10T13:43:17.279Z,6.33
2019-05-10T13:46:01.679Z,7.45
2019-05-10T13:48:48.453Z,6.10
2019-05-10T13:51:37.255Z,8.20
2019-05-10T13:54:23.201Z,10.95
2019-05-10T13:57:00.670Z,8.85
2019-05-10T14:00:06.425Z,6.78
2019-05-10T14:02:46.799Z,7.67
2019-05-10T14:05:33.932Z,8.40
2019-05-10T14:08:11.685Z,9.23
2019-05-10T14:11:05.983Z,8.00
2019-05-10T14:13:43.028Z,7.22
2019-05-10T14:16:19.463Z,10.15
2019-05-10T14:18:55.486Z,7.45
2019-05-10T14:21:26.531Z,5.42
2019-05-10T14:23:57.201Z,9.38
2019-05-10T14:26:27.858Z,6.70
2019-05-10T14:29:11.213Z,8.48
2019-05-10T14:31:42.214Z,8.10
2019-05-10T14:34:15.298Z,7.70
2019-05-10T14:36:45.348Z,9.70
2019-05-10T14:39:17.306Z,9.18
2019-05-10T14:41:50.701Z,7.95
2019-05-10T14:44:20.111Z,8.60
2019-05-10T14:46:50.650Z,8.23
2019-05-10T14:49:22.516Z,8.33
2019-05-10T14:51:58.797Z,9.68
2019-05-10T14:54:26.591Z,10.35
2019-05-10T14:56:57.319Z,8.48
2019-05-10T14:59:27.956Z,6.72
2019-05-10T15:01:59.825Z,5.22
2019-05-10T15:04:44.337Z,9.58
2019-05-10T15:07:02.803Z,6.72
2019-05-10T15:09:33.795Z,8.10
2019-05-10T15:12:04.478Z,7.10
2019-05-10T15:14:35.105Z,6.30
2019-05-10T15:17:05.773Z,8.93
2019-05-10T15:19:36.495Z,6.10
2019-05-10T15:22:07.304Z,8.48
2019-05-10T15:24:37.956Z,5.60
2019-05-10T15:27:09.689Z,6.87
2019-05-10T15:29:40.400Z,7.80
2019-05-10T15:32:11.121Z,8.80
2019-05-10T15:34:41.889Z,10.68
2019-05-10T15:37:12.634Z,9.13
2019-05-10T15:39:43.405Z,11.35
2019-05-10T15:42:15.210Z,9.00
2019-05-10T15:44:45.882Z,10.40
2019-05-10T15:47:20.489Z,8.55
2019-05-10T15:49:48.900Z,7.08
2019-05-10T15:52:23.015Z,5.92
2019-05-10T15:54:51.814Z,9.95
2019-05-10T15:57:22.454Z,10.28
2019-05-10T15:59:56.580Z,10.75
2019-05-10T16:02:26.134Z,7.08
2019-05-10T16:04:56.837Z,5.72
2019-05-10T16:07:30.137Z,8.35
2019-05-10T16:10:00.827Z,8.00
2019-05-10T16:12:31.469Z,4.58
2019-05-10T16:15:02.149Z,6.70
2019-05-10T16:17:32.896Z,8.05
2019-05-10T16:20:03.818Z,8.55
2019-05-10T16:22:34.890Z,4.58
2019-05-10T16:25:07.522Z,9.38
2019-05-10T16:27:43.512Z,7.33
2019-05-10T16:30:11.972Z,9.13
2019-05-10T16:32:42.828Z,10.43
2019-05-10T16:35:15.627Z,10.80
2019-05-10T16:37:46.417Z,11.08
2019-05-10T16:40:17.245Z,8.45
2019-05-10T16:42:47.901Z,8.83
2019-05-10T16:45:20.294Z,13.43
2019-05-10T16:47:51.003Z,8.38
2019-05-10T16:50:26.103Z,9.30
2019-05-10T16:53:03.350Z,6.12
2019-05-10T16:55:29.200Z,5.42
2019-05-10T16:58:00.840Z,8.40
2019-05-10T17:00:31.538Z,9.70
2019-05-10T17:03:02.073Z,6.92
2019-05-10T17:05:33.879Z,7.12
2019-05-10T17:08:04.615Z,12.37
2019-05-10T17:10:35.487Z,10.48
2019-05-10T17:13:06.715Z,7.55
2019-05-10T17:15:39.729Z,7.47
2019-05-10T17:18:10.561Z,6.75
2019-05-10T17:20:45.380Z,9.45
2019-05-10T17:23:14.268Z,8.83
2019-05-10T17:25:44.797Z,15.93
2019-05-10T17:28:15.430Z,6.65
2019-05-10T17:30:47.383Z,6.65
2019-05-10T17:33:18.014Z,9.68
2019-05-10T17:35:49.747Z,9.93
2019-05-10T17:38:20.562Z,7.83
2019-05-10T17:40:51.275Z,10.40
2019-05-10T17:43:22.839Z,5.58
2019-05-10T17:45:53.685Z,6.85
2019-05-10T17:48:24.326Z,10.68
2019-05-10T17:50:54.880Z,9.90
2019-05-10T17:53:36.410Z,7.30
2019-05-10T17:56:08.245Z,7.67
2019-05-10T17:58:39.023Z,7.37
2019-05-10T18:01:09.671Z,11.03
2019-05-10T18:03:40.445Z,9.70
2019-05-10T18:06:23.055Z,5.85
2019-05-10T18:08:45.956Z,8.38
2019-05-10T18:11:19.303Z,7.95
2019-05-10T18:13:49.975Z,8.48
2019-05-10T18:16:20.630Z,13.03
2019-05-10T18:18:52.729Z,13.32
2019-05-10T18:21:24.221Z,9.03
2019-05-10T18:23:58.228Z,10.95
2019-05-10T18:26:29.080Z,8.23
2019-05-10T18:29:04.766Z,8.60
2019-05-10T18:31:35.482Z,11.88
2019-05-10T18:34:06.148Z,10.80
2019-05-10T18:36:51.162Z,8.78
2019-05-10T18:39:15.681Z,14.95
2019-05-10T18:41:46.672Z,12.85
2019-05-10T18:44:15.957Z,12.40
2019-05-10T18:46:46.867Z,15.08
2019-05-10T18:49:17.518Z,16.27
2019-05-10T18:51:48.044Z,14.98
2019-05-10T18:54:18.864Z,13.10
2019-05-10T18:56:49.608Z,16.65
2019-05-10T18:59:20.381Z,15.63
2019-05-10T19:01:51.023Z,15.45
2019-05-10T19:04:24.378Z,18.60
2019-05-10T19:07:09.382Z,14.83
2019-05-10T19:09:27.436Z,11.08
2019-05-10T19:11:58.322Z,13.15
2019-05-10T19:14:31.275Z,27.40
2019-05-10T19:17:03.851Z,17.23
2019-05-10T19:19:37.150Z,23.40
2019-05-10T19:22:08.782Z,12.88
2019-05-10T19:24:39.255Z,14.70
2019-05-10T19:27:09.911Z,14.68
2019-05-10T19:29:45.552Z,10.15
2019-05-10T19:32:18.320Z,15.38
2019-05-10T19:34:48.326Z,27.62
2019-05-10T19:37:29.818Z,16.23
2019-05-10T19:39:51.694Z,18.25
2019-05-10T19:42:22.224Z,18.15
2019-05-10T19:44:52.872Z,16.40
2019-05-10T19:47:24.604Z,18.10
2019-05-10T19:49:58.087Z,13.83
2019-05-10T19:52:28.639Z,15.10
2019-05-10T19:54:59.573Z,14.90
2019-05-10T19:57:30.174Z,16.27
2019-05-10T20:00:05.193Z,16.52
2019-05-10T20:02:37.546Z,15.78
2019-05-10T20:05:08.611Z,14.80
2019-05-10T20:07:45.694Z,12.63
2019-05-10T20:10:12.610Z,11.50
2019-05-10T20:12:43.366Z,13.98
2019-05-10T20:15:15.827Z,11.18
2019-05-10T20:17:46.544Z,16.07
2019-05-10T20:30:40.875Z,22.60
2019-05-10T20:33:11.980Z,25.10
2019-05-10T20:35:42.715Z,12.37
2019-05-10T20:38:13.509Z,11.45
2019-05-10T20:40:47.868Z,10.82
2019-05-10T20:43:18.643Z,11.83
2019-05-10T20:45:50.895Z,13.45
2019-05-10T20:48:21.582Z,15.15
2019-05-10T20:50:52.357Z,10.98
2019-05-10T20:53:23.009Z,15.20
2019-05-10T20:55:53.542Z,10.38
2019-05-10T20:58:24.308Z,11.63
2019-05-10T21:00:56.408Z,12.13
2019-05-10T21:03:27.130Z,9.48
2019-05-10T21:05:59.234Z,10.28
2019-05-10T21:08:29.924Z,11.10
2019-05-10T21:11:00.677Z,10.75
2019-05-10T21:13:32.532Z,13.60
2019-05-10T21:16:03.165Z,8.50
2019-05-10T21:18:34.325Z,18.40
2019-05-10T21:21:04.855Z,12.07
2019-05-10T21:23:35.622Z,13.25
2019-05-10T21:26:06.264Z,10.13
2019-05-10T21:28:37.937Z,13.83
2019-05-10T21:31:10.711Z,13.28
2019-05-10T21:33:43.319Z,19.12
2019-05-10T21:36:15.498Z,17.62
2019-05-10T21:38:47.443Z,13.35
2019-05-10T21:41:18.076Z,11.03
2019-05-10T21:43:50.338Z,11.90
2019-05-10T21:46:21.099Z,13.30
2019-05-10T21:48:55.772Z,10.43
2019-05-10T21:51:26.426Z,13.05
2019-05-10T21:53:57.225Z,10.80
2019-05-10T21:56:27.929Z,11.60
2019-05-10T21:59:00.840Z,8.23
2019-05-10T22:01:31.594Z,11.10
2019-05-10T22:04:02.610Z,9.05
2019-05-10T22:06:33.454Z,10.48
2019-05-10T22:09:10.186Z,13.75
2019-05-10T22:11:40.956Z,11.97
2019-05-10T22:14:11.685Z,9.83
2019-05-10T22:16:42.319Z,7.62
2019-05-10T22:19:16.992Z,11.78
2019-05-10T22:21:47.741Z,13.78
2019-05-10T22:24:18.626Z,11.57
2019-05-10T22:26:49.183Z,16.00
2019-05-10T22:29:22.996Z,9.25
2019-05-10T22:31:54.627Z,11.90
2019-05-10T22:34:25.295Z,10.13
2019-05-10T22:36:56.238Z,11.00
2019-05-10T22:39:36.385Z,9.53
2019-05-10T22:42:07.015Z,11.40
2019-05-10T22:44:37.681Z,10.58
2019-05-10T22:47:08.220Z,11.10
2019-05-10T22:49:44.776Z,9.83
2019-05-10T22:52:15.422Z,10.63
2019-05-10T22:54:46.058Z,15.13
2019-05-10T22:57:16.720Z,11.83
2019-05-10T22:59:51.345Z,12.03
2019-05-10T23:02:21.989Z,10.50
2019-05-10T23:04:52.831Z,9.48
2019-05-10T23:07:23.662Z,9.18
2019-05-10T23:09:55.498Z,12.23
2019-05-10T23:12:26.141Z,14.25
2019-05-10T23:14:56.809Z,11.48
2019-05-10T23:17:38.214Z,10.95
2019-05-10T23:20:13.331Z,9.20
2019-05-10T23:22:43.878Z,10.08
2019-05-10T23:25:14.741Z,8.43
2019-05-10T23:27:45.368Z,9.95
2019-05-10T23:30:20.297Z,11.22
2019-05-10T23:32:52.001Z,10.65
2019-05-10T23:35:22.657Z,12.53
2019-05-10T23:37:53.277Z,10.63
2019-05-10T23:40:27.444Z,10.95
2019-05-10T23:42:59.667Z,13.62
2019-05-10T23:45:30.422Z,12.70
2019-05-10T23:48:00.966Z,13.78
2019-05-10T23:50:35.374Z,8.58
2019-05-10T23:53:06.001Z,14.60
2019-05-10T23:55:38.144Z,11.48
2019-05-10T23:58:08.778Z,10.90
